Alam Padu — 9MGK6 — position and weather

sailwx.info

Track history (hours):
 
Tides and Currents Weather Stations Pressure Air Temp Water Temp Dewpoint Dewpoint Depression Visibility Wind Speed Wind Dir Waves Ship Positions

Alam Padu

Last reported at 2014-Jul-25 17:08 UTC. Time now 2014-Jul-29 00:34 UTC.
Position S 28°48' E 032°03'.

Length 229 m; draft 10.8 m.

Type: Cargo ship. MMSI: 533924000.

Date/timePositionNaut miles runAvg speedWind from/ knotsBaromVisibWave heightAir tempDewpointWater temp
2014-Jul-25 17:08S 28°48' E 032°03'0 0.0
2014-Jul-25 14:26S 28°48' E 032°03'0 0.0
2014-Jul-25 13:20S 28°48' E 032°03'0 0.0
2014-Jul-25 11:08S 28°48' E 032°03'0 0.0
2014-Jul-25 03:08S 28°48' E 032°03'0 0.0
2014-Jul-24 23:20S 28°48' E 032°03'1 0.9
2014-Jul-24 22:33S 28°48' E 032°04'5 5.0
2014-Jul-24 21:33S 28°51' E 032°08'1 1.2
2014-Jul-24 20:21S 28°52' E 032°07'0 0.0
2014-Jul-24 14:31S 28°53' E 032°07'2 0.1
2014-Jul-22 18:33S 28°51' E 032°10'  
Track history (hours):
 
Tides and Currents Weather Stations Pressure Air Temp Water Temp Dewpoint Dewpoint Depression Visibility Wind Speed Wind Dir Waves Ship Positions

Alam Padu

Last reported at 2014-Jul-25 17:08 UTC. Time now 2014-Jul-29 00:34 UTC.
Position S 28°48' E 032°03'.

Length 229 m; draft 10.8 m.

Type: Cargo ship. MMSI: 533924000.

Date/timePositionNaut miles runAvg speedWind from/ knotsBaromVisibWave heightAir tempDewpointWater temp
2014-Jul-25 17:08S 28°48' E 032°03'0 0.0
2014-Jul-25 14:26S 28°48' E 032°03'0 0.0
2014-Jul-25 13:20S 28°48' E 032°03'0 0.0
2014-Jul-25 11:08S 28°48' E 032°03'0 0.0
2014-Jul-25 03:08S 28°48' E 032°03'0 0.0
2014-Jul-24 23:20S 28°48' E 032°03'1 0.9
2014-Jul-24 22:33S 28°48' E 032°04'5 5.0
2014-Jul-24 21:33S 28°51' E 032°08'1 1.2
2014-Jul-24 20:21S 28°52' E 032°07'0 0.0
2014-Jul-24 14:31S 28°53' E 032°07'2 0.1
2014-Jul-22 18:33S 28°51' E 032°10'  

Dump ship's entire track history